Time;durP1;ratioP1;P1;durP2;ratioP2;P2;SDS_P1;SDS_P2;PMS_P1;PMS_P2;Temp;Humidity;BMP_temperature;BMP_pressure;BME280_temperature;BME280_humidity;BME280_pressure;Samples;Min_cycle;Max_cycle;Signal;HPM_P1;HPM_P2
2021/09/01 00:00:47;;;;;;;3.42;2.50;;;19.60;56.30;;;;;;5064986;28;20177;-78
2021/09/01 00:03:18;;;;;;;3.25;2.45;;;19.70;56.40;;;;;;5081771;28;20181;-78
2021/09/01 00:05:49;;;;;;;3.85;2.80;;;19.60;56.40;;;;;;5064957;28;20201;-78
2021/09/01 00:08:20;;;;;;;3.63;2.70;;;19.60;56.30;;;;;;5048559;28;20649;-78
2021/09/01 00:10:46;;;;;;;3.47;2.50;;;19.60;56.30;;;;;;5081267;28;20233;-78
2021/09/01 00:13:26;;;;;;;3.08;2.60;;;19.60;56.30;;;;;;5065790;28;20265;-78
2021/09/01 00:15:56;;;;;;;3.83;2.35;;;19.60;56.40;;;;;;5081964;28;20182;-78
2021/09/01 00:18:26;;;;;;;3.70;2.70;;;19.60;56.50;;;;;;5081862;28;20242;-78
2021/09/01 00:20:53;;;;;;;3.28;2.63;;;19.60;56.50;;;;;;5081745;28;20192;-78
2021/09/01 00:23:20;;;;;;;2.90;2.35;;;19.60;56.50;;;;;;5081045;28;20194;-78
2021/09/01 00:25:50;;;;;;;3.58;2.83;;;19.60;56.50;;;;;;5064806;28;20189;-77
2021/09/01 00:28:21;;;;;;;4.32;2.53;;;19.60;56.50;;;;;;5064783;28;20182;-78
2021/09/01 00:30:52;;;;;;;3.45;2.40;;;19.60;56.50;;;;;;5081592;28;20573;-78
2021/09/01 00:33:20;;;;;;;3.80;2.83;;;19.60;56.40;;;;;;5081722;28;20567;-78
2021/09/01 00:35:50;;;;;;;3.80;2.72;;;19.60;56.40;;;;;;5066915;28;20221;-78
2021/09/01 00:38:19;;;;;;;3.17;2.45;;;19.60;56.50;;;;;;5081455;28;20245;-78
2021/09/01 00:40:46;;;;;;;4.07;2.92;;;19.60;56.40;;;;;;5081825;28;20190;-78
2021/09/01 00:43:13;;;;;;;3.38;2.47;;;19.50;56.40;;;;;;5064744;28;20178;-78
2021/09/01 00:45:48;;;;;;;4.00;2.78;;;19.60;56.50;;;;;;5081650;28;20178;-78
2021/09/01 00:48:18;;;;;;;3.83;2.50;;;19.60;56.60;;;;;;5081412;28;20184;-78
2021/09/01 00:50:49;;;;;;;3.50;2.47;;;19.60;56.40;;;;;;5081137;28;20220;-78
2021/09/01 00:53:15;;;;;;;3.60;2.72;;;19.60;56.50;;;;;;5080998;28;20236;-78
2021/09/01 00:55:52;;;;;;;3.42;2.65;;;19.60;56.50;;;;;;5064849;28;20162;-78
2021/09/01 00:58:19;;;;;;;4.20;2.70;;;19.60;56.60;;;;;;5081216;28;20206;-78
2021/09/01 01:03:34;;;;;;;3.25;2.63;;;19.60;56.60;;;;;;5066066;28;20157;-78
2021/09/01 01:06:02;;;;;;;3.47;2.58;;;19.60;56.60;;;;;;5081043;28;20236;-78
2021/09/01 01:08:32;;;;;;;4.07;2.70;;;19.60;56.60;;;;;;5081491;28;20169;-78
2021/09/01 01:10:58;;;;;;;4.00;2.90;;;19.60;56.60;;;;;;5081341;28;20240;-78
2021/09/01 01:13:29;;;;;;;3.78;2.72;;;19.60;56.60;;;;;;5048954;28;20210;-78
2021/09/01 01:16:02;;;;;;;3.65;2.60;;;19.60;56.60;;;;;;5064828;28;20604;-78
2021/09/01 01:18:32;;;;;;;3.63;2.80;;;19.60;56.60;;;;;;5064805;28;20182;-78
2021/09/01 01:21:00;;;;;;;3.83;2.67;;;19.60;56.60;;;;;;5048437;28;20185;-78
2021/09/01 01:23:29;;;;;;;3.28;2.65;;;19.60;56.60;;;;;;5047602;28;20182;-77
2021/09/01 01:26:00;;;;;;;3.65;2.60;;;19.50;56.60;;;;;;5064303;28;20194;-78
2021/09/01 01:28:30;;;;;;;3.38;2.55;;;19.60;56.70;;;;;;5064506;28;20178;-78
2021/09/01 01:30:57;;;;;;;4.60;2.70;;;19.50;56.60;;;;;;5063903;28;20178;-78
2021/09/01 01:33:26;;;;;;;2.70;2.17;;;19.60;56.60;;;;;;5063859;28;20236;-78
2021/09/01 01:35:53;;;;;;;3.10;2.50;;;19.60;56.70;;;;;;5080974;28;20209;-78
2021/09/01 01:38:22;;;;;;;4.47;2.97;;;19.60;56.70;;;;;;5064032;28;20657;-78
2021/09/01 01:40:53;;;;;;;3.72;2.58;;;19.50;56.60;;;;;;5064150;28;20242;-78
2021/09/01 01:43:22;;;;;;;3.63;2.50;;;19.60;56.70;;;;;;5080477;28;20200;-78
2021/09/01 01:45:50;;;;;;;3.33;2.70;;;19.60;56.80;;;;;;5081088;28;20174;-78
2021/09/01 01:48:18;;;;;;;3.92;2.80;;;19.50;56.70;;;;;;5063605;28;20182;-78
2021/09/01 01:50:46;;;;;;;4.18;2.75;;;19.50;56.90;;;;;;5064134;28;20182;-78
2021/09/01 01:53:15;;;;;;;3.70;2.80;;;19.50;56.80;;;;;;5080869;28;20217;-79
2021/09/01 01:55:42;;;;;;;2.80;2.30;;;19.50;56.70;;;;;;5080612;28;20178;-78
2021/09/01 01:58:14;;;;;;;3.58;2.80;;;19.50;56.70;;;;;;5048616;28;20245;-78
2021/09/01 02:00:42;;;;;;;3.08;2.53;;;19.50;56.70;;;;;;5063974;28;20209;-78
2021/09/01 02:03:12;;;;;;;3.55;2.55;;;19.50;56.80;;;;;;5046881;28;20220;-78
2021/09/01 02:05:40;;;;;;;3.17;2.58;;;19.50;56.70;;;;;;5080444;28;20208;-78
2021/09/01 02:08:11;;;;;;;3.72;2.67;;;19.50;56.80;;;;;;5066789;28;20193;-79
2021/09/01 02:10:36;;;;;;;3.83;2.20;;;19.60;56.80;;;;;;5067472;28;20232;-78
2021/09/01 02:13:04;;;;;;;3.92;2.70;;;19.50;56.80;;;;;;5051270;28;20261;-79
2021/09/01 02:15:35;;;;;;;3.25;2.50;;;19.50;56.80;;;;;;5051220;28;20536;-78
2021/09/01 02:18:03;;;;;;;3.72;2.53;;;19.50;56.80;;;;;;5066840;28;20189;-78
2021/09/01 02:20:30;;;;;;;2.92;2.25;;;19.50;56.80;;;;;;5083815;28;20231;-78
2021/09/01 02:22:57;;;;;;;3.03;2.45;;;19.60;56.90;;;;;;5050719;28;20222;-78
2021/09/01 02:25:27;;;;;;;4.22;2.90;;;19.50;56.80;;;;;;5083399;28;20252;-78
2021/09/01 02:27:57;;;;;;;3.88;2.70;;;19.50;56.80;;;;;;5084222;28;20193;-78
2021/09/01 02:30:23;;;;;;;3.33;2.53;;;19.50;56.80;;;;;;5083995;28;20657;-78
2021/09/01 02:32:49;;;;;;;3.40;2.78;;;19.50;56.80;;;;;;5068379;28;20217;-78
2021/09/01 02:35:15;;;;;;;3.47;2.72;;;19.50;56.80;;;;;;5067739;28;20146;-78
2021/09/01 02:37:42;;;;;;;3.70;2.60;;;19.50;56.90;;;;;;5068760;28;20160;-77
2021/09/01 02:40:10;;;;;;;2.85;2.50;;;19.40;56.80;;;;;;5067877;28;20185;-78
2021/09/01 02:42:36;;;;;;;3.78;2.60;;;19.50;56.90;;;;;;5050451;28;20181;-79
2021/09/01 02:45:03;;;;;;;3.47;2.85;;;19.50;56.80;;;;;;5067791;28;20176;-78
2021/09/01 02:47:30;;;;;;;4.05;2.60;;;19.50;56.90;;;;;;5066046;28;20564;-78
2021/09/01 02:50:01;;;;;;;3.25;2.70;;;19.50;56.90;;;;;;5083169;28;20224;-78
2021/09/01 02:52:28;;;;;;;3.75;2.67;;;19.40;56.90;;;;;;5083644;28;20209;-78
2021/09/01 02:54:56;;;;;;;4.07;2.58;;;19.50;56.90;;;;;;5066806;28;20178;-78
2021/09/01 02:57:21;;;;;;;3.60;2.70;;;19.50;56.90;;;;;;5066059;28;20201;-78
2021/09/01 02:59:49;;;;;;;3.97;2.75;;;19.50;56.90;;;;;;5050052;28;20510;-78
2021/09/01 03:02:16;;;;;;;3.38;2.55;;;19.50;56.90;;;;;;5083369;28;20201;-79
2021/09/01 03:04:46;;;;;;;3.33;2.50;;;19.50;56.90;;;;;;5049354;28;20321;-78
2021/09/01 03:07:13;;;;;;;3.92;2.83;;;19.50;56.90;;;;;;5066573;28;20209;-78
2021/09/01 03:09:39;;;;;;;3.67;2.70;;;19.40;57.60;;;;;;5065380;28;20240;-78
2021/09/01 03:12:09;;;;;;;4.30;3.10;;;19.50;56.90;;;;;;5067262;28;20166;-78
2021/09/01 03:14:36;;;;;;;3.38;2.50;;;19.50;56.90;;;;;;5066174;28;20226;-78
2021/09/01 03:17:04;;;;;;;3.70;2.60;;;19.50;56.90;;;;;;5083184;28;20182;-78
2021/09/01 03:19:35;;;;;;;3.53;2.50;;;19.50;57.00;;;;;;5066384;28;20239;-78
2021/09/01 03:22:05;;;;;;;4.30;2.80;;;19.40;56.90;;;;;;5065979;28;20178;-78
2021/09/01 03:24:33;;;;;;;3.45;2.40;;;19.40;56.90;;;;;;5066559;28;20196;-78
2021/09/01 03:27:03;;;;;;;3.60;2.58;;;19.50;57.00;;;;;;5083243;28;20178;-77
2021/09/01 03:29:29;;;;;;;3.97;2.90;;;19.50;57.00;;;;;;5082413;28;20212;-78
2021/09/01 03:31:57;;;;;;;3.65;2.60;;;19.50;57.00;;;;;;5066694;28;20166;-79
2021/09/01 03:34:24;;;;;;;3.25;2.50;;;19.40;56.90;;;;;;5065290;28;20214;-78
2021/09/01 03:36:55;;;;;;;3.65;2.50;;;19.40;56.90;;;;;;5065789;28;20213;-78
2021/09/01 03:39:22;;;;;;;4.63;3.10;;;19.40;57.00;;;;;;5048796;28;20192;-78
2021/09/01 03:41:55;;;;;;;3.55;2.70;;;19.50;57.00;;;;;;5083094;28;20189;-78
2021/09/01 03:44:25;;;;;;;3.67;2.80;;;19.40;57.00;;;;;;5082240;28;20193;-79
2021/09/01 03:46:55;;;;;;;3.88;2.90;;;19.50;57.00;;;;;;5066277;28;20640;-78
2021/09/01 03:49:25;;;;;;;3.83;2.70;;;19.50;57.00;;;;;;5065452;28;20193;-78
2021/09/01 03:51:52;;;;;;;3.63;2.50;;;19.40;56.90;;;;;;5082549;28;20197;-78
2021/09/01 03:54:19;;;;;;;3.92;2.75;;;19.40;57.00;;;;;;5065110;28;20267;-78
2021/09/01 03:56:51;;;;;;;3.95;2.80;;;19.40;57.00;;;;;;5082502;28;20181;-78
2021/09/01 03:59:23;;;;;;;3.03;2.53;;;19.40;57.00;;;;;;5064950;28;20182;-78
2021/09/01 04:01:50;;;;;;;3.30;2.50;;;19.40;57.00;;;;;;5082351;28;20550;-78
2021/09/01 04:04:17;;;;;;;3.42;2.60;;;19.40;57.00;;;;;;5065704;28;20193;-78
2021/09/01 04:06:51;;;;;;;3.50;2.55;;;19.40;57.00;;;;;;5064657;28;20212;-78
2021/09/01 04:09:18;;;;;;;3.45;2.60;;;19.40;57.00;;;;;;5064612;28;20181;-78
2021/09/01 04:11:51;;;;;;;4.28;2.78;;;19.40;57.10;;;;;;5065559;28;20289;-78
2021/09/01 04:14:20;;;;;;;4.97;3.05;;;19.40;57.10;;;;;;5064678;28;20229;-78
2021/09/01 04:16:54;;;;;;;3.55;2.70;;;19.40;57.10;;;;;;5065776;28;20197;-78
2021/09/01 04:19:20;;;;;;;4.38;2.80;;;19.40;57.00;;;;;;5081257;28;20182;-78
2021/09/01 04:21:46;;;;;;;3.70;2.83;;;19.40;57.00;;;;;;5065476;28;20171;-77
2021/09/01 04:24:12;;;;;;;3.58;2.33;;;19.40;57.00;;;;;;5066072;28;20174;-78
2021/09/01 04:26:42;;;;;;;3.70;2.67;;;19.40;56.00;;;;;;5049379;28;20158;-78
2021/09/01 04:29:08;;;;;;;3.63;2.70;;;19.40;55.80;;;;;;5064890;28;20221;-78
2021/09/01 04:31:34;;;;;;;3.53;2.63;;;19.40;55.70;;;;;;5049416;28;20536;-78
2021/09/01 04:34:00;;;;;;;3.35;2.55;;;19.40;55.50;;;;;;5049252;28;20265;-78
2021/09/01 04:36:26;;;;;;;4.68;3.05;;;19.40;55.20;;;;;;5065419;28;20158;-78
2021/09/01 04:38:57;;;;;;;3.53;2.80;;;19.40;55.10;;;;;;5065859;28;20158;-78
2021/09/01 04:41:23;;;;;;;3.53;2.55;;;19.40;54.90;;;;;;5064606;28;20180;-78
2021/09/01 04:43:54;;;;;;;3.00;2.40;;;19.40;54.90;;;;;;5064611;28;20233;-78
2021/09/01 04:46:20;;;;;;;3.90;2.70;;;19.30;54.60;;;;;;5081148;28;20251;-77
2021/09/01 04:48:49;;;;;;;3.80;2.47;;;19.40;54.50;;;;;;5065471;28;20190;-78
2021/09/01 04:51:16;;;;;;;3.72;2.70;;;19.40;54.30;;;;;;5047661;28;20703;-78
2021/09/01 04:53:42;;;;;;;3.72;2.80;;;19.40;54.20;;;;;;5064853;28;20634;-79
2021/09/01 04:56:08;;;;;;;4.22;2.75;;;19.40;54.20;;;;;;5064457;28;20161;-79
2021/09/01 04:58:38;;;;;;;4.80;3.13;;;19.40;54.00;;;;;;5064708;28;20193;-79
2021/09/01 05:01:08;;;;;;;4.22;2.92;;;19.40;53.90;;;;;;5063860;28;20182;-78
2021/09/01 05:03:39;;;;;;;4.05;2.80;;;19.40;53.70;;;;;;5063698;28;20253;-78
2021/09/01 05:06:13;;;;;;;4.30;3.20;;;19.40;53.70;;;;;;5080006;28;20174;-78
2021/09/01 05:08:39;;;;;;;4.35;3.13;;;19.40;53.60;;;;;;5047190;28;20185;-78
2021/09/01 05:11:05;;;;;;;4.43;2.90;;;19.40;54.40;;;;;;5065346;28;20339;-78
2021/09/01 05:13:31;;;;;;;4.53;3.00;;;19.40;53.70;;;;;;5063721;28;20225;-78
2021/09/01 05:15:57;;;;;;;4.30;3.10;;;19.40;53.80;;;;;;5065168;28;20187;-78
2021/09/01 05:18:23;;;;;;;3.50;2.67;;;19.40;53.80;;;;;;5064582;28;20601;-78
2021/09/01 05:20:53;;;;;;;4.05;2.92;;;19.40;53.60;;;;;;5064296;28;20223;-79
2021/09/01 05:23:19;;;;;;;4.03;3.05;;;19.50;53.50;;;;;;5045307;28;20640;-78
2021/09/01 05:25:54;;;;;;;4.13;2.97;;;19.50;53.70;;;;;;5046656;28;20170;-80
2021/09/01 05:28:27;;;;;;;5.00;3.22;;;19.50;53.50;;;;;;5065426;28;20169;-80
2021/09/01 05:30:58;;;;;;;4.22;2.90;;;19.50;53.60;;;;;;5044156;28;20659;-83
2021/09/01 05:33:26;;;;;;;3.97;2.80;;;19.50;53.70;;;;;;5072653;28;20209;-81
2021/09/01 05:35:56;;;;;;;5.72;3.40;;;19.60;53.80;;;;;;5043710;28;20257;-81
2021/09/01 05:38:22;;;;;;;4.30;2.90;;;19.50;53.70;;;;;;5058880;28;20530;-83
2021/09/01 05:40:49;;;;;;;4.25;2.97;;;19.50;54.00;;;;;;5052468;28;20163;-83
2021/09/01 05:43:16;;;;;;;4.43;3.22;;;19.60;54.10;;;;;;5055447;28;20538;-84
2021/09/01 05:45:43;;;;;;;4.97;3.40;;;19.50;54.10;;;;;;5055811;28;20231;-83
2021/09/01 05:48:10;;;;;;;9.98;4.60;;;19.50;54.10;;;;;;5056887;28;20178;-82
2021/09/01 05:50:36;;;;;;;9.07;4.78;;;19.60;54.10;;;;;;5055639;28;20153;-82
2021/09/01 05:53:02;;;;;;;5.82;3.40;;;19.60;54.10;;;;;;5056708;28;20251;-84
2021/09/01 05:55:32;;;;;;;4.97;3.35;;;19.60;54.10;;;;;;5038985;28;20167;-83
2021/09/01 05:58:01;;;;;;;6.68;3.65;;;19.60;54.10;;;;;;5055272;28;20482;-81
2021/09/01 06:00:31;;;;;;;4.70;3.30;;;19.70;54.20;;;;;;5055674;28;20153;-84
2021/09/01 06:03:04;;;;;;;5.05;3.42;;;19.60;54.40;;;;;;5055605;28;20165;-83
2021/09/01 06:05:30;;;;;;;5.13;3.30;;;19.70;54.60;;;;;;5055378;28;20250;-82
2021/09/01 06:07:58;;;;;;;5.05;3.33;;;19.80;54.80;;;;;;5055634;28;20256;-84
2021/09/01 06:10:28;;;;;;;4.53;3.25;;;19.70;54.80;;;;;;5055424;28;20221;-83
2021/09/01 06:12:55;;;;;;;4.78;3.58;;;19.70;54.80;;;;;;5055209;28;20300;-84
2021/09/01 06:15:22;;;;;;;4.72;3.13;;;19.60;54.90;;;;;;5055807;28;20162;-83
2021/09/01 06:17:48;;;;;;;4.90;3.22;;;19.70;54.80;;;;;;5056303;28;20159;-81
2021/09/01 06:20:14;;;;;;;4.35;3.22;;;19.70;54.70;;;;;;5039313;28;20523;-82
2021/09/01 06:22:40;;;;;;;4.97;3.15;;;19.70;54.60;;;;;;5057992;28;20155;-83
2021/09/01 06:25:06;;;;;;;6.00;3.72;;;19.70;54.70;;;;;;5056416;28;20154;-85
2021/09/01 06:27:33;;;;;;;5.30;3.60;;;19.70;54.40;;;;;;5055498;28;20177;-82
2021/09/01 06:29:59;;;;;;;5.32;3.53;;;19.80;54.40;;;;;;5056138;28;20688;-82
2021/09/01 06:32:25;;;;;;;4.95;3.40;;;19.80;54.20;;;;;;5058910;28;20190;-83
2021/09/01 06:34:53;;;;;;;6.30;3.55;;;19.80;54.40;;;;;;5058794;28;20196;-85
2021/09/01 06:37:19;;;;;;;5.78;3.70;;;19.90;54.50;;;;;;5056481;28;20208;-85
2021/09/01 06:39:45;;;;;;;4.50;2.95;;;19.90;54.30;;;;;;5056724;28;20198;-82
2021/09/01 06:42:11;;;;;;;4.57;3.00;;;19.90;54.40;;;;;;5044455;28;20262;-84
2021/09/01 06:44:38;;;;;;;4.97;3.38;;;19.90;54.10;;;;;;5039016;28;20181;-83
2021/09/01 06:47:05;;;;;;;5.45;3.53;;;19.90;54.20;;;;;;5059645;28;20216;-83
2021/09/01 06:49:31;;;;;;;5.05;3.30;;;19.90;54.10;;;;;;5058449;28;20156;-82
2021/09/01 06:51:57;;;;;;;4.80;3.17;;;19.90;54.20;;;;;;5057066;28;20285;-82
2021/09/01 06:54:23;;;;;;;5.53;3.53;;;20.00;54.00;;;;;;5057768;28;20304;-83
2021/09/01 06:56:49;;;;;;;5.40;3.13;;;20.00;54.00;;;;;;5059807;28;20178;-83
2021/09/01 06:59:15;;;;;;;5.30;3.33;;;20.00;53.90;;;;;;5067671;28;20166;-83
2021/09/01 07:01:40;;;;;;;7.45;3.33;;;20.00;54.00;;;;;;5062231;28;20502;-83
2021/09/01 07:04:06;;;;;;;5.00;3.40;;;20.00;53.90;;;;;;5059364;28;20195;-83
2021/09/01 07:06:32;;;;;;;5.05;3.45;;;20.00;53.80;;;;;;5059270;28;20162;-86
2021/09/01 07:08:57;;;;;;;6.43;3.58;;;20.00;53.90;;;;;;5040164;28;20193;-85
2021/09/01 07:11:24;;;;;;;5.40;2.92;;;20.00;54.00;;;;;;5057213;28;20228;-86
2021/09/01 07:13:50;;;;;;;5.40;3.25;;;20.00;54.30;;;;;;5057098;28;20197;-84
2021/09/01 07:16:17;;;;;;;5.90;3.58;;;20.00;54.20;;;;;;5057810;28;20162;-85
2021/09/01 07:18:42;;;;;;;4.57;3.13;;;19.90;54.20;;;;;;5056899;28;20177;-85
2021/09/01 07:21:08;;;;;;;4.85;3.33;;;19.90;53.90;;;;;;5041261;28;20162;-85
2021/09/01 07:23:37;;;;;;;5.18;3.38;;;20.00;53.90;;;;;;5043349;28;20527;-85
2021/09/01 07:26:06;;;;;;;6.00;3.58;;;20.00;54.00;;;;;;5027130;28;20269;-84
2021/09/01 07:28:34;;;;;;;4.50;3.15;;;20.00;53.90;;;;;;5029020;28;20672;-85
2021/09/01 07:31:00;;;;;;;5.00;3.50;;;20.00;54.10;;;;;;5029971;28;20170;-86
2021/09/01 07:33:25;;;;;;;5.40;3.30;;;20.00;54.10;;;;;;5029107;28;20231;-85
2021/09/01 07:35:53;;;;;;;4.20;3.33;;;20.00;54.00;;;;;;5027977;28;20682;-84
2021/09/01 07:38:26;;;;;;;6.57;3.08;;;20.00;53.80;;;;;;5043054;28;20207;-85
2021/09/01 07:40:54;;;;;;;5.53;3.42;;;20.00;53.80;;;;;;5045139;28;20215;-83
2021/09/01 07:43:26;;;;;;;5.88;3.60;;;20.10;53.80;;;;;;5044648;28;20192;-84
2021/09/01 07:45:53;;;;;;;5.45;3.35;;;20.00;53.50;;;;;;5028849;28;20189;-85
2021/09/01 07:48:23;;;;;;;6.47;3.20;;;20.10;53.50;;;;;;5044318;28;20237;-86
2021/09/01 07:50:56;;;;;;;5.60;3.35;;;20.10;53.60;;;;;;5044706;28;20170;-85
2021/09/01 07:53:29;;;;;;;5.30;3.60;;;20.10;53.30;;;;;;5043680;28;20210;-84
2021/09/01 07:56:03;;;;;;;4.63;3.13;;;20.10;53.20;;;;;;5059876;28;20182;-85
2021/09/01 07:58:34;;;;;;;3.78;2.78;;;20.10;53.10;;;;;;5061304;28;20240;-83
2021/09/01 08:01:06;;;;;;;5.28;3.40;;;20.10;53.10;;;;;;5044253;28;20200;-84
2021/09/01 08:03:38;;;;;;;4.30;2.75;;;20.20;52.80;;;;;;5044138;28;20193;-84
2021/09/01 08:06:09;;;;;;;5.72;3.10;;;20.20;52.80;;;;;;5042318;28;20253;-84
2021/09/01 08:08:41;;;;;;;5.07;3.10;;;20.10;52.90;;;;;;5059571;28;20194;-83
2021/09/01 08:11:07;;;;;;;4.68;3.13;;;20.10;53.10;;;;;;5040047;28;20222;-82
2021/09/01 08:13:37;;;;;;;6.00;3.00;;;20.20;53.00;;;;;;5054311;28;20204;-82
2021/09/01 08:16:08;;;;;;;8.07;3.05;;;20.20;52.80;;;;;;5053803;28;20236;-81
2021/09/01 08:18:39;;;;;;;10.45;3.20;;;20.30;52.70;;;;;;5053710;28;20206;-83
2021/09/01 08:21:09;;;;;;;6.72;3.15;;;20.20;52.70;;;;;;5037033;28;20174;-82
2021/09/01 08:23:39;;;;;;;9.18;3.38;;;20.20;52.60;;;;;;5053490;28;20186;-82
2021/09/01 08:26:05;;;;;;;15.98;3.90;;;20.20;52.60;;;;;;5057963;28;20264;-84
2021/09/01 08:28:31;;;;;;;11.65;3.72;;;20.20;52.60;;;;;;5038553;28;20158;-85
2021/09/01 08:30:57;;;;;;;14.48;3.90;;;20.20;52.70;;;;;;5022313;28;20537;-82
2021/09/01 08:33:23;;;;;;;16.15;3.65;;;20.20;52.50;;;;;;5053833;28;20196;-84
2021/09/01 08:35:48;;;;;;;24.20;4.05;;;20.20;52.60;;;;;;5054461;28;20154;-81
2021/09/01 08:38:14;;;;;;;13.68;3.88;;;20.30;52.50;;;;;;5054140;28;20150;-84
2021/09/01 08:40:40;;;;;;;19.38;4.43;;;20.30;52.60;;;;;;5053507;28;20562;-83
2021/09/01 08:43:06;;;;;;;12.93;3.80;;;20.20;52.60;;;;;;5055060;28;20170;-84
2021/09/01 08:45:33;;;;;;;17.50;3.85;;;20.20;52.60;;;;;;5055150;28;20161;-84
2021/09/01 08:47:58;;;;;;;20.25;4.45;;;20.20;52.40;;;;;;5038091;28;20524;-82
2021/09/01 08:50:27;;;;;;;15.27;3.10;;;20.30;52.20;;;;;;5052298;28;20158;-81
2021/09/01 08:52:54;;;;;;;14.95;3.78;;;20.20;51.70;;;;;;5051920;28;20158;-82
2021/09/01 08:55:21;;;;;;;12.95;3.50;;;20.20;51.80;;;;;;5020744;28;20210;-82
2021/09/01 08:57:46;;;;;;;10.57;3.35;;;20.20;51.70;;;;;;5034705;28;20598;-82
2021/09/01 09:00:13;;;;;;;23.73;4.38;;;20.30;51.60;;;;;;5050999;28;20162;-85
2021/09/01 09:02:39;;;;;;;8.13;3.63;;;20.30;51.60;;;;;;5049188;28;20150;-84
2021/09/01 09:05:11;;;;;;;11.48;3.55;;;20.20;51.40;;;;;;5032473;28;20194;-83
2021/09/01 09:07:52;;;;;;;8.18;3.03;;;20.20;51.60;;;;;;5032703;28;20173;-82
2021/09/01 09:10:30;;;;;;;9.23;3.05;;;20.30;51.60;;;;;;5034817;28;20770;-81
2021/09/01 09:13:01;;;;;;;9.77;3.10;;;20.30;51.40;;;;;;5051625;28;20690;-82
2021/09/01 09:15:32;;;;;;;10.02;3.10;;;20.20;51.00;;;;;;5052307;28;20589;-81
2021/09/01 09:18:00;;;;;;;6.80;3.00;;;20.30;50.90;;;;;;5057866;28;20231;-82
2021/09/01 09:20:31;;;;;;;11.77;3.30;;;20.40;50.60;;;;;;5040685;28;20212;-84
2021/09/01 09:22:56;;;;;;;9.63;3.13;;;20.40;50.80;;;;;;5056882;28;20197;-85
2021/09/01 09:25:30;;;;;;;9.20;3.38;;;20.40;50.80;;;;;;5062041;28;20641;-84
2021/09/01 09:28:01;;;;;;;12.13;3.83;;;20.40;50.70;;;;;;5040636;28;20186;-82
2021/09/01 09:30:31;;;;;;;6.55;3.15;;;20.30;50.80;;;;;;5019968;28;20634;-83
2021/09/01 09:33:16;;;;;;;10.40;3.42;;;20.40;50.60;;;;;;5020348;28;20320;-84
2021/09/01 09:35:51;;;;;;;16.38;3.58;;;20.40;50.50;;;;;;4990269;28;20297;-82
2021/09/01 09:38:29;;;;;;;9.75;3.20;;;20.40;50.50;;;;;;5004672;28;20174;-82
2021/09/01 09:41:00;;;;;;;15.55;4.10;;;20.50;50.50;;;;;;5004281;28;20182;-83
2021/09/01 09:43:28;;;;;;;12.18;3.42;;;20.40;50.70;;;;;;5020434;28;20549;-83
2021/09/01 09:46:07;;;;;;;10.90;3.42;;;20.40;50.50;;;;;;5020669;28;20175;-83
2021/09/01 09:48:34;;;;;;;10.43;3.45;;;20.40;50.70;;;;;;5020421;28;20576;-83
2021/09/01 09:51:02;;;;;;;12.07;3.47;;;20.30;50.70;;;;;;5020438;28;20183;-83
2021/09/01 09:53:36;;;;;;;6.82;2.90;;;20.30;50.80;;;;;;5020872;28;20291;-83
2021/09/01 09:56:10;;;;;;;8.77;3.30;;;20.30;50.50;;;;;;5004839;28;20700;-86
2021/09/01 09:58:40;;;;;;;13.30;3.72;;;20.40;50.50;;;;;;5020937;28;20182;-83
2021/09/01 10:01:08;;;;;;;8.57;3.35;;;20.40;50.60;;;;;;5032615;28;20174;-82
2021/09/01 10:03:34;;;;;;;12.27;3.10;;;20.40;50.40;;;;;;5041292;28;20221;-82
2021/09/01 10:06:02;;;;;;;7.25;3.42;;;20.40;50.50;;;;;;5058112;28;20559;-86
2021/09/01 10:08:31;;;;;;;11.10;3.40;;;20.40;50.20;;;;;;5026180;28;20162;-82
2021/09/01 10:10:58;;;;;;;8.35;3.28;;;20.40;50.40;;;;;;5044291;28;20590;-84
2021/09/01 10:13:27;;;;;;;10.88;3.33;;;20.40;50.50;;;;;;5063329;28;20653;-84
2021/09/01 10:16:00;;;;;;;11.07;3.03;;;20.30;50.60;;;;;;5060852;28;20281;-83
2021/09/01 10:18:31;;;;;;;6.82;3.40;;;20.20;50.70;;;;;;5044067;28;20182;-84
2021/09/01 10:20:59;;;;;;;8.73;2.90;;;20.20;50.70;;;;;;5060117;28;20182;-83
2021/09/01 10:23:40;;;;;;;14.43;3.78;;;20.20;50.70;;;;;;5079789;28;20190;-85
2021/09/01 10:26:34;;;;;;;8.30;3.08;;;20.20;50.70;;;;;;5063179;28;20150;-84
2021/09/01 10:29:06;;;;;;;8.75;2.90;;;20.20;50.50;;;;;;5056198;28;20653;-84
2021/09/01 10:31:33;;;;;;;11.07;3.35;;;20.30;50.40;;;;;;5056386;28;20182;-85
2021/09/01 10:34:19;;;;;;;11.63;3.13;;;20.20;50.30;;;;;;5040936;28;20641;-83
2021/09/01 10:36:51;;;;;;;4.88;3.22;;;20.30;50.40;;;;;;5056037;28;20207;-82
2021/09/01 10:39:35;;;;;;;8.23;3.35;;;20.20;50.30;;;;;;5034841;28;20181;-85
2021/09/01 10:42:35;;;;;;;9.32;3.50;;;20.20;50.30;;;;;;5020858;28;20182;-84
2021/09/01 10:45:06;;;;;;;10.38;3.40;;;20.20;50.40;;;;;;5051910;28;20214;-83
2021/09/01 10:48:11;;;;;;;9.45;2.90;;;20.20;50.50;;;;;;5036354;28;20178;-83
2021/09/01 10:50:43;;;;;;;10.63;3.30;;;20.20;50.50;;;;;;5037981;28;20245;-84
2021/09/01 10:53:24;;;;;;;13.10;3.30;;;20.10;50.40;;;;;;5035838;28;20210;-85
2021/09/01 10:56:01;;;;;;;7.28;3.60;;;20.20;50.30;;;;;;5020447;28;20218;-83
2021/09/01 10:58:40;;;;;;;9.60;2.95;;;20.20;50.30;;;;;;5036080;28;20187;-83
2021/09/01 11:01:08;;;;;;;10.25;3.50;;;20.20;50.20;;;;;;5035451;28;20242;-85
2021/09/01 11:03:36;;;;;;;8.82;3.15;;;20.10;50.30;;;;;;5036466;28;20173;-84
2021/09/01 11:06:15;;;;;;;6.00;2.75;;;20.20;50.40;;;;;;5050632;28;20159;-83
2021/09/01 11:09:04;;;;;;;8.07;3.00;;;20.10;50.30;;;;;;5033773;28;20186;-85
2021/09/01 11:11:50;;;;;;;9.85;3.30;;;20.10;50.20;;;;;;5050768;28;20230;-84
2021/09/01 11:14:30;;;;;;;8.10;3.22;;;20.10;50.00;;;;;;5050562;28;20637;-83
2021/09/01 11:16:59;;;;;;;7.50;2.90;;;20.20;50.10;;;;;;5050785;28;20155;-82
2021/09/01 11:19:28;;;;;;;7.47;2.70;;;20.20;49.90;;;;;;5049896;28;20190;-84
2021/09/01 11:21:55;;;;;;;5.22;2.80;;;20.20;50.00;;;;;;5033195;28;20186;-82
2021/09/01 11:24:27;;;;;;;5.43;2.92;;;20.10;50.10;;;;;;5034126;28;20228;-83
2021/09/01 11:26:55;;;;;;;9.98;3.05;;;20.20;50.20;;;;;;5016320;28;20190;-84
2021/09/01 11:29:36;;;;;;;9.23;3.20;;;20.20;50.00;;;;;;5050075;28;20642;-85
2021/09/01 11:32:05;;;;;;;7.55;2.78;;;20.20;50.00;;;;;;5050257;28;20622;-84
2021/09/01 11:34:33;;;;;;;8.45;2.75;;;20.20;50.10;;;;;;5032680;28;20214;-84
2021/09/01 11:36:59;;;;;;;5.75;2.50;;;20.10;50.20;;;;;;5034081;28;20190;-85
2021/09/01 11:39:27;;;;;;;5.57;3.13;;;20.00;50.30;;;;;;5032344;28;20163;-84
2021/09/01 11:41:57;;;;;;;8.00;3.08;;;20.20;50.30;;;;;;5012914;28;20182;-82
2021/09/01 11:44:23;;;;;;;6.32;2.92;;;20.10;50.30;;;;;;5015803;28;20193;-83
2021/09/01 11:46:50;;;;;;;9.95;3.50;;;20.10;50.30;;;;;;5032606;28;20176;-81
2021/09/01 11:49:18;;;;;;;5.82;3.00;;;20.10;50.50;;;;;;5032677;28;20236;-83
2021/09/01 11:51:45;;;;;;;9.52;2.85;;;20.00;50.60;;;;;;5015519;28;20183;-85
2021/09/01 11:54:13;;;;;;;5.43;2.78;;;20.00;50.60;;;;;;5032381;28;20218;-81
2021/09/01 11:56:39;;;;;;;7.93;3.13;;;19.90;50.70;;;;;;5032431;28;20186;-81
2021/09/01 11:59:06;;;;;;;4.60;2.65;;;20.00;50.70;;;;;;5031933;28;20171;-86
2021/09/01 12:01:37;;;;;;;10.13;3.17;;;20.10;50.70;;;;;;5014548;28;20487;-84
2021/09/01 12:04:06;;;;;;;5.15;2.80;;;20.10;50.70;;;;;;5031050;28;20265;-84
2021/09/01 12:06:39;;;;;;;7.50;3.00;;;20.10;50.70;;;;;;5002465;28;20183;-83
2021/09/01 12:09:13;;;;;;;8.15;3.03;;;20.10;50.70;;;;;;5020807;28;20182;-82
2021/09/01 12:12:02;;;;;;;8.50;3.13;;;20.00;50.70;;;;;;5035488;28;20792;-83
2021/09/01 12:14:31;;;;;;;7.55;3.30;;;20.00;50.80;;;;;;5023263;28;20244;-83
2021/09/01 12:17:24;;;;;;;8.95;2.88;;;20.00;50.70;;;;;;5020428;28;20210;-85
2021/09/01 12:20:05;;;;;;;8.30;3.00;;;20.10;50.90;;;;;;5038543;28;20178;-84
2021/09/01 12:22:41;;;;;;;4.28;2.42;;;20.00;50.90;;;;;;5023192;28;20174;-87
2021/09/01 12:25:17;;;;;;;5.65;2.70;;;20.00;50.90;;;;;;5021887;28;20182;-82
2021/09/01 12:28:05;;;;;;;5.70;2.80;;;20.10;51.00;;;;;;5055117;28;20242;-84
2021/09/01 12:30:35;;;;;;;7.40;3.00;;;20.10;51.00;;;;;;5019499;28;20652;-83
2021/09/01 12:33:04;;;;;;;6.93;2.90;;;20.10;51.00;;;;;;5022532;28;20182;-83
2021/09/01 12:35:32;;;;;;;5.20;2.70;;;20.10;51.00;;;;;;5038002;28;20237;-84
2021/09/01 12:38:01;;;;;;;5.03;2.60;;;20.10;51.00;;;;;;5021796;28;20195;-84
2021/09/01 12:40:32;;;;;;;4.18;2.30;;;20.10;51.00;;;;;;5020995;28;20188;-83
2021/09/01 12:43:05;;;;;;;6.65;3.17;;;20.10;51.10;;;;;;5037895;28;20709;-82
2021/09/01 12:45:36;;;;;;;8.85;2.53;;;20.00;51.20;;;;;;5024685;28;20186;-80
2021/09/01 12:48:09;;;;;;;4.20;2.70;;;20.00;51.40;;;;;;5024823;28;20522;-79
2021/09/01 12:50:42;;;;;;;7.05;2.92;;;20.00;51.40;;;;;;5042152;28;20273;-82
2021/09/01 12:53:13;;;;;;;5.43;2.30;;;20.00;51.30;;;;;;5042426;28;20221;-80
2021/09/01 12:55:44;;;;;;;6.53;2.97;;;20.00;51.50;;;;;;5043533;28;20179;-79
2021/09/01 12:58:10;;;;;;;7.22;2.60;;;20.10;51.50;;;;;;5043278;28;20341;-79
2021/09/01 13:00:37;;;;;;;5.45;2.83;;;20.00;51.40;;;;;;5027141;28;20189;-82